Current | Forecast
Updated: 7:00 AM JST on June 21, 2018
Observed at Yamaguchi Ube, Japan
Temperature 70°F
Humidity 94%
Dew Point 68°F
Wind NNE at 4 mph
Pressure 29.68 in (Steady)
Conditions Partly Cloudy
Visibility 6.2 miles
UV 2 out of 16
Clouds (FEW) : 2000 ft
Yesterday's Maximum 77°F
Yesterday's Minimum 70°F approx.
Yesterday's Cooling Degree Days 8 approx.
Sunrise5:02 AM JST
Sunset7:28 PM JST
Moon Rise12:53 PM JST
Moon Set12:39 AM JST
Moon PhaseMoon Phase
First Quarter
Raw METARMETAR RJDC 202200Z 02003KT 330V050 9999 FEW020 BKN/// 21/20 Q1005


Monday
. High: 71° F.
Tuesday
. High: 80° F.
Wednesday
. High: 73° F.
Thursday
. High: 75° F.
Friday
. High: 77° F.
Saturday
. High: 82° F.
Sunday
. High: 78° F.
Monday
. High: 82° F.

Units: English | Metric

Find the Weather for any City, State or Zipcode, or Country:

U.S. State List | Severe Weather | Tropical Storms | Ski Conditions
United States | Canada | Central America | South America | Asia | Europe | Australia | Africa | Islands

Weather Underground

© Copyright 2018
The Weather Company, LLC